createdAt,value
2023-01-01T00:02:02.223Z,51.58
2023-01-01T00:04:28.967Z,51.66
2023-01-01T00:06:55.436Z,51.61
2023-01-01T00:09:40.516Z,51.09
2023-01-01T00:12:07.105Z,51.04
2023-01-01T00:14:33.727Z,50.85
2023-01-01T00:17:00.219Z,51.11
2023-01-01T00:19:26.694Z,51.19
2023-01-01T00:21:53.991Z,50.97
2023-01-01T00:24:20.496Z,50.67
2023-01-01T00:26:47.007Z,50.30
2023-01-01T00:29:13.531Z,50.50
2023-01-01T00:31:40.028Z,49.86
2023-01-01T00:34:06.587Z,49.78
2023-01-01T00:36:33.072Z,49.32
2023-01-01T00:38:59.546Z,49.05
2023-01-01T00:41:26.050Z,49.51
2023-01-01T00:43:52.531Z,49.36
2023-01-01T00:46:19.116Z,49.12
2023-01-01T00:48:46.002Z,49.20
2023-01-01T00:51:12.650Z,48.99
2023-01-01T00:53:39.180Z,48.74
2023-01-01T00:56:06.476Z,48.57
2023-01-01T00:58:33.000Z,48.39
2023-01-01T01:00:59.738Z,48.04
2023-01-01T01:03:29.204Z,48.08
2023-01-01T01:06:10.952Z,47.81
2023-01-01T01:08:40.789Z,48.04
2023-01-01T01:11:13.050Z,47.93
2023-01-01T01:13:41.269Z,48.10
2023-01-01T01:16:10.562Z,47.61
2023-01-01T01:18:37.394Z,48.00
2023-01-01T01:21:04.278Z,47.89
2023-01-01T01:23:30.814Z,47.65
2023-01-01T01:26:10.952Z,47.73
2023-01-01T01:28:37.659Z,47.51
2023-01-01T01:31:04.815Z,47.42
2023-01-01T01:33:31.351Z,47.23
2023-01-01T01:35:57.923Z,47.12
2023-01-01T01:38:24.673Z,47.57
2023-01-01T01:40:51.437Z,47.07
2023-01-01T01:43:25.127Z,47.16
2023-01-01T01:46:01.841Z,47.06
2023-01-01T01:48:28.639Z,46.58
2023-01-01T01:50:56.522Z,46.57
2023-01-01T01:53:29.923Z,46.64
2023-01-01T01:56:00.316Z,46.62
2023-01-01T01:58:29.725Z,46.54
2023-01-01T02:00:57.069Z,46.66
2023-01-01T02:03:31.578Z,46.09
2023-01-01T02:09:44.783Z,45.89
2023-01-01T02:12:11.352Z,46.24
2023-01-01T02:14:37.891Z,45.80
2023-01-01T02:17:18.343Z,46.22
2023-01-01T02:19:55.286Z,45.81
2023-01-01T02:22:36.799Z,45.95
2023-01-01T02:25:29.528Z,45.91
2023-01-01T02:28:06.333Z,46.15
2023-01-01T02:30:35.254Z,45.96
2023-01-01T02:33:12.084Z,46.33
2023-01-01T02:35:45.605Z,46.32
2023-01-01T02:38:16.883Z,46.06
2023-01-01T02:40:48.613Z,46.20
2023-01-01T02:43:17.888Z,45.98
2023-01-01T02:45:48.474Z,46.29
2023-01-01T02:48:48.928Z,46.14
2023-01-01T02:51:27.532Z,46.16
2023-01-01T02:54:20.770Z,45.93
2023-01-01T02:57:11.016Z,46.13
2023-01-01T03:00:17.042Z,45.88
2023-01-01T03:03:02.937Z,46.01
2023-01-01T03:06:10.912Z,45.85
2023-01-01T03:08:48.264Z,46.05
2023-01-01T03:11:18.800Z,46.07
2023-01-01T03:14:14.657Z,45.88
2023-01-01T03:17:06.973Z,46.13
2023-01-01T03:19:39.243Z,46.08
2023-01-01T03:22:17.211Z,45.73
2023-01-01T03:25:12.254Z,45.71
2023-01-01T03:27:46.639Z,45.78
2023-01-01T03:30:15.771Z,46.09
2023-01-01T03:33:07.948Z,46.08
2023-01-01T03:35:40.610Z,45.96
2023-01-01T03:38:56.403Z,46.22
2023-01-01T03:41:40.392Z,46.19
2023-01-01T03:44:24.729Z,46.12
2023-01-01T03:46:51.780Z,46.19
2023-01-01T03:49:20.469Z,46.11
2023-01-01T03:52:23.552Z,46.12
2023-01-01T03:55:08.213Z,46.19
2023-01-01T03:58:09.299Z,46.46
2023-01-01T04:00:40.929Z,46.15
2023-01-01T04:03:19.710Z,46.46
2023-01-01T04:05:46.352Z,46.55
2023-01-01T04:08:15.498Z,46.30
2023-01-01T04:10:48.911Z,46.57
2023-01-01T04:13:15.797Z,46.48
2023-01-01T04:15:42.284Z,46.54
2023-01-01T04:18:09.212Z,46.50
2023-01-01T04:20:35.663Z,46.71
2023-01-01T04:23:03.900Z,46.66
2023-01-01T04:25:30.571Z,46.93
2023-01-01T04:28:03.573Z,46.77
2023-01-01T04:30:30.502Z,46.97
2023-01-01T04:32:56.975Z,46.80
2023-01-01T04:35:23.676Z,46.70
2023-01-01T04:37:50.134Z,46.60
2023-01-01T04:40:16.593Z,46.52
2023-01-01T04:42:43.499Z,47.08
2023-01-01T04:45:12.413Z,47.36
2023-01-01T04:47:39.031Z,47.27
2023-01-01T04:50:06.125Z,47.20
2023-01-01T04:52:33.535Z,47.17
2023-01-01T04:54:59.996Z,47.21
2023-01-01T04:57:26.432Z,47.48
2023-01-01T04:59:52.875Z,47.46
2023-01-01T05:02:19.592Z,47.52
2023-01-01T05:04:46.243Z,47.68
2023-01-01T05:07:12.884Z,47.47
2023-01-01T05:09:39.304Z,47.59
2023-01-01T05:12:06.052Z,47.92
2023-01-01T05:14:33.497Z,47.78
2023-01-01T05:16:59.939Z,47.75
2023-01-01T05:19:26.430Z,47.82
2023-01-01T05:21:54.203Z,47.70
2023-01-01T05:24:20.684Z,48.00
2023-01-01T05:26:47.192Z,48.03
2023-01-01T05:29:17.048Z,47.66
2023-01-01T05:31:44.897Z,47.97
2023-01-01T05:34:11.589Z,47.90
2023-01-01T05:36:39.111Z,47.87
2023-01-01T05:44:29.282Z,48.32
2023-01-01T05:46:55.800Z,47.84
2023-01-01T05:49:22.301Z,48.17
2023-01-01T05:54:42.439Z,48.12
2023-01-01T05:57:08.920Z,48.12
2023-01-01T05:59:35.580Z,47.79
2023-01-01T06:02:02.326Z,48.11
2023-01-01T06:04:28.943Z,47.96
2023-01-01T06:06:55.445Z,48.15
2023-01-01T06:09:21.923Z,48.29
2023-01-01T06:11:48.318Z,48.29
2023-01-01T06:16:46.135Z,48.23
2023-01-01T06:19:12.679Z,48.17
2023-01-01T06:29:38.587Z,48.42
2023-01-01T06:32:05.281Z,48.40
2023-01-01T06:37:07.342Z,47.68
2023-01-01T06:39:33.948Z,48.06
2023-01-01T06:47:15.912Z,47.67
2023-01-01T06:49:42.534Z,48.27
2023-01-01T06:52:08.999Z,48.05
2023-01-01T06:54:35.462Z,47.83
2023-01-01T06:57:01.880Z,47.96
2023-01-01T06:59:28.390Z,48.13
2023-01-01T07:01:54.950Z,47.88
2023-01-01T07:04:21.539Z,48.00
2023-01-01T07:06:48.175Z,47.80
2023-01-01T07:14:52.227Z,48.16
2023-01-01T07:17:18.742Z,48.28
2023-01-01T07:19:45.240Z,47.91
2023-01-01T07:22:12.216Z,48.13
2023-01-01T07:27:14.109Z,47.99
2023-01-01T07:32:29.253Z,48.23
2023-01-01T07:37:37.388Z,47.85
2023-01-01T07:40:04.196Z,47.59
2023-01-01T07:42:30.657Z,48.10
2023-01-01T07:44:57.156Z,47.81
2023-01-01T07:47:25.780Z,47.58
2023-01-01T07:55:11.549Z,48.04
2023-01-01T07:57:38.059Z,48.14
2023-01-01T08:00:05.155Z,47.81
2023-01-01T08:02:31.743Z,47.81
2023-01-01T08:07:25.956Z,47.60
2023-01-01T08:49:04.372Z,47.86
2023-01-01T08:51:30.815Z,48.01
2023-01-01T08:53:57.219Z,48.10
2023-01-01T08:56:23.719Z,47.98
2023-01-01T08:58:50.327Z,47.93
2023-01-01T09:01:17.210Z,48.20
2023-01-01T09:03:43.729Z,47.98
2023-01-01T09:06:10.420Z,47.87
2023-01-01T09:08:36.912Z,48.02
2023-01-01T09:11:03.752Z,47.79
2023-01-01T09:13:30.583Z,47.96
2023-01-01T09:15:57.496Z,48.21
2023-01-01T09:18:24.292Z,48.22
2023-01-01T09:20:50.746Z,48.09
2023-01-01T09:23:17.636Z,48.28
2023-01-01T09:25:44.086Z,48.41
2023-01-01T09:28:12.833Z,47.98
2023-01-01T09:30:39.582Z,48.08
2023-01-01T09:33:06.086Z,48.20
2023-01-01T09:35:32.692Z,48.00
2023-01-01T09:37:59.172Z,47.80
2023-01-01T09:40:49.180Z,47.93
2023-01-01T09:43:23.233Z,47.88
2023-01-01T09:45:52.450Z,48.09
2023-01-01T09:48:19.069Z,47.68
2023-01-01T09:50:46.727Z,47.97
2023-01-01T09:53:32.445Z,47.68
2023-01-01T09:56:01.663Z,47.92
2023-01-01T09:58:33.376Z,47.76
2023-01-01T10:01:02.950Z,47.27
2023-01-01T10:03:47.820Z,47.42
2023-01-01T10:06:34.668Z,46.91
2023-01-01T10:09:15.292Z,46.93
2023-01-01T10:12:20.207Z,47.14
2023-01-01T10:14:57.886Z,46.61
2023-01-01T10:17:39.058Z,46.61
2023-01-01T10:20:19.682Z,46.78
2023-01-01T10:22:52.455Z,46.94
2023-01-01T10:25:22.630Z,46.98
2023-01-01T10:27:59.909Z,47.51
2023-01-01T10:30:28.002Z,47.35
2023-01-01T10:32:56.071Z,47.04
2023-01-01T10:35:30.034Z,46.96
2023-01-01T10:37:59.189Z,47.26
2023-01-01T10:40:27.940Z,46.95
2023-01-01T10:43:00.342Z,46.60
2023-01-01T10:45:33.535Z,47.22
2023-01-01T10:48:26.366Z,47.48
2023-01-01T10:50:56.534Z,47.30
2023-01-01T10:53:41.605Z,47.40
2023-01-01T10:56:13.931Z,47.37
2023-01-01T10:58:48.665Z,47.54
2023-01-01T11:01:18.023Z,47.29
2023-01-01T11:04:13.273Z,47.03
2023-01-01T11:06:42.531Z,47.19
2023-01-01T11:09:22.777Z,47.34
2023-01-01T11:12:00.761Z,47.20
2023-01-01T11:14:53.736Z,46.60
2023-01-01T11:17:35.083Z,46.66
2023-01-01T11:20:04.418Z,46.75
2023-01-01T11:22:50.317Z,46.72
2023-01-01T11:25:28.595Z,46.72
2023-01-01T11:28:16.807Z,46.42
2023-01-01T11:31:03.842Z,46.46
2023-01-01T11:33:34.603Z,46.86
2023-01-01T11:36:01.633Z,46.40
2023-01-01T11:38:30.439Z,46.07
2023-01-01T11:41:04.386Z,46.28
2023-01-01T11:43:38.304Z,46.30
2023-01-01T11:46:09.034Z,46.31
2023-01-01T11:48:36.890Z,46.40
2023-01-01T11:51:06.613Z,45.52
2023-01-01T11:53:41.552Z,45.93
2023-01-01T11:56:14.657Z,46.00
2023-01-01T11:59:06.455Z,45.84
2023-01-01T12:01:35.838Z,45.43
2023-01-01T12:04:20.844Z,46.22
2023-01-01T12:07:26.061Z,46.13
2023-01-01T12:10:01.479Z,46.23
2023-01-01T12:12:39.595Z,46.66
2023-01-01T12:15:24.704Z,46.26
2023-01-01T12:18:17.991Z,45.97
2023-01-01T12:20:51.382Z,46.22
2023-01-01T12:23:19.243Z,46.29
2023-01-01T12:26:04.715Z,46.54
2023-01-01T12:28:39.354Z,46.27
2023-01-01T12:31:05.749Z,46.03
2023-01-01T12:33:38.011Z,46.59
2023-01-01T12:36:23.568Z,46.43
2023-01-01T12:39:14.109Z,46.57
2023-01-01T12:42:01.390Z,46.80
2023-01-01T12:44:39.845Z,46.96
2023-01-01T12:47:30.751Z,47.45
2023-01-01T12:50:05.729Z,47.77
2023-01-01T12:53:14.795Z,47.39
2023-01-01T12:55:59.803Z,47.76
2023-01-01T12:58:51.915Z,47.64
2023-01-01T13:01:28.474Z,47.66
2023-01-01T13:04:02.562Z,48.06
2023-01-01T13:06:50.048Z,48.11
2023-01-01T13:09:22.838Z,48.10
2023-01-01T13:12:04.350Z,48.18
2023-01-01T13:14:39.529Z,47.98
2023-01-01T13:17:23.523Z,47.72
2023-01-01T13:19:57.773Z,48.29
2023-01-01T13:22:27.214Z,48.65
2023-01-01T13:25:21.569Z,48.41
2023-01-01T13:28:00.615Z,48.78
2023-01-01T13:30:36.206Z,48.38
2023-01-01T13:33:25.005Z,48.45
2023-01-01T13:36:07.395Z,49.05
2023-01-01T13:38:49.555Z,48.87
2023-01-01T13:41:46.357Z,49.37
2023-01-01T13:44:23.327Z,48.50
2023-01-01T13:46:59.001Z,48.77
2023-01-01T13:49:37.703Z,49.09
2023-01-01T13:52:22.899Z,49.13
2023-01-01T13:55:18.531Z,49.32
2023-01-01T13:57:50.990Z,48.81
2023-01-01T14:00:30.259Z,48.95
2023-01-01T14:03:03.226Z,49.59
2023-01-01T14:05:41.003Z,49.45
2023-01-01T14:08:30.129Z,50.22
2023-01-01T14:10:57.600Z,49.46
2023-01-01T14:13:29.970Z,49.93
2023-01-01T14:16:09.024Z,49.95
2023-01-01T14:18:43.424Z,49.79
2023-01-01T14:21:21.769Z,50.11
2023-01-01T14:23:52.667Z,50.13
2023-01-01T14:26:21.298Z,50.17
2023-01-01T14:28:48.145Z,50.56
2023-01-01T14:31:21.754Z,50.75
2023-01-01T14:33:48.763Z,51.22
2023-01-01T14:36:17.698Z,50.87
2023-01-01T14:38:46.075Z,50.72
2023-01-01T14:41:51.136Z,50.92
2023-01-01T14:44:21.525Z,50.84
2023-01-01T14:46:50.811Z,51.36
2023-01-01T14:49:26.052Z,51.65
2023-01-01T14:52:00.952Z,51.78
2023-01-01T14:54:33.199Z,51.77
2023-01-01T14:57:00.768Z,51.60
2023-01-01T14:59:30.736Z,51.88
2023-01-01T15:02:12.706Z,51.82
2023-01-01T15:04:39.977Z,52.30
2023-01-01T15:07:06.665Z,51.79
2023-01-01T15:09:33.597Z,52.08
2023-01-01T15:12:00.446Z,51.98
2023-01-01T15:14:35.750Z,52.38
2023-01-01T15:17:07.199Z,52.11
2023-01-01T15:19:35.321Z,52.47
2023-01-01T15:22:08.214Z,52.58
2023-01-01T15:24:37.570Z,52.76
2023-01-01T15:27:06.611Z,52.82
2023-01-01T15:29:38.111Z,52.58
2023-01-01T15:32:08.300Z,52.79
2023-01-01T15:34:42.707Z,52.85
2023-01-01T15:37:20.011Z,53.00
2023-01-01T15:39:49.960Z,53.06
2023-01-01T15:42:48.862Z,53.31
2023-01-01T15:45:21.397Z,53.68
2023-01-01T15:47:53.433Z,53.31
2023-01-01T15:50:30.133Z,53.31
2023-01-01T15:53:09.740Z,53.28
2023-01-01T15:55:43.100Z,53.70
2023-01-01T15:58:26.500Z,53.94
2023-01-01T16:01:00.503Z,53.94
2023-01-01T16:03:31.779Z,53.76
2023-01-01T16:05:58.583Z,54.25
2023-01-01T16:08:25.446Z,53.92
2023-01-01T16:10:52.826Z,54.05
2023-01-01T16:13:19.847Z,54.07
2023-01-01T16:16:04.607Z,54.04
2023-01-01T16:18:33.988Z,54.24
2023-01-01T16:21:02.587Z,54.22
2023-01-01T16:23:29.196Z,53.95
2023-01-01T16:25:55.639Z,54.00
2023-01-01T16:28:22.166Z,54.14
2023-01-01T16:30:48.819Z,54.69
2023-01-01T16:33:18.195Z,54.62
2023-01-01T16:35:45.179Z,54.91
2023-01-01T16:38:11.714Z,55.06
2023-01-01T16:40:38.495Z,54.31
2023-01-01T16:43:09.380Z,54.29
2023-01-01T16:45:36.222Z,54.52
2023-01-01T16:48:02.635Z,54.38
2023-01-01T16:50:29.154Z,54.14
2023-01-01T16:52:55.663Z,54.50
2023-01-01T16:55:22.123Z,54.38
2023-01-01T16:57:48.658Z,54.25
2023-01-01T17:00:15.727Z,54.55
2023-01-01T17:02:42.563Z,54.83
2023-01-01T17:05:10.680Z,54.63
2023-01-01T17:07:37.205Z,54.48
2023-01-01T17:10:04.411Z,54.58
2023-01-01T17:12:31.523Z,54.50
2023-01-01T17:14:58.007Z,54.80
2023-01-01T17:17:24.688Z,54.73
2023-01-01T17:19:51.175Z,54.68
2023-01-01T17:22:17.806Z,55.35
2023-01-01T17:24:44.267Z,55.04
2023-01-01T17:27:10.795Z,54.98
2023-01-01T17:29:37.395Z,55.46
2023-01-01T17:32:04.013Z,54.93
2023-01-01T17:34:30.472Z,55.02
2023-01-01T17:36:56.937Z,54.91
2023-01-01T17:39:23.444Z,55.22
2023-01-01T17:41:49.899Z,56.49
2023-01-01T17:44:16.371Z,55.74
2023-01-01T17:46:44.224Z,55.19
2023-01-01T17:49:11.278Z,55.30
2023-01-01T17:51:39.271Z,55.49
2023-01-01T17:54:10.297Z,56.31
2023-01-01T17:56:36.995Z,56.62
2023-01-01T17:59:03.548Z,56.66
2023-01-01T18:01:32.621Z,56.75
2023-01-01T18:04:05.430Z,56.73
2023-01-01T18:06:38.676Z,56.59
2023-01-01T18:09:10.530Z,56.54
2023-01-01T18:11:37.032Z,56.75
2023-01-01T18:14:04.206Z,56.49
2023-01-01T18:16:33.196Z,56.82
2023-01-01T18:19:01.325Z,56.89
2023-01-01T18:21:28.211Z,57.15
2023-01-01T18:23:56.345Z,56.84
2023-01-01T18:26:24.878Z,57.15
2023-01-01T18:28:59.707Z,57.59
2023-01-01T18:31:28.613Z,57.35
2023-01-01T18:33:56.006Z,57.24
2023-01-01T18:36:25.637Z,58.21
2023-01-01T18:39:01.527Z,58.18
2023-01-01T18:41:39.548Z,58.22
2023-01-01T18:44:18.362Z,58.55
2023-01-01T18:46:49.703Z,58.13
2023-01-01T18:49:16.599Z,58.49
2023-01-01T18:51:43.079Z,58.31
2023-01-01T18:54:15.609Z,58.21
2023-01-01T18:56:42.115Z,58.50
2023-01-01T18:59:20.330Z,58.31
2023-01-01T19:01:47.536Z,58.69
2023-01-01T19:04:14.313Z,58.98
2023-01-01T19:06:40.985Z,59.12
2023-01-01T19:09:25.318Z,59.13
2023-01-01T19:11:55.168Z,58.83
2023-01-01T19:14:24.406Z,58.23
2023-01-01T19:16:54.935Z,58.67
2023-01-01T19:19:23.056Z,58.59
2023-01-01T19:21:53.128Z,58.74
2023-01-01T19:24:24.383Z,58.76
2023-01-01T19:27:10.149Z,58.72
2023-01-01T19:29:42.020Z,58.73
2023-01-01T19:32:08.520Z,58.75
2023-01-01T19:34:36.870Z,58.94
2023-01-01T19:37:03.352Z,58.53
2023-01-01T19:39:34.425Z,58.83
2023-01-01T19:42:05.003Z,58.69
2023-01-01T19:44:32.250Z,58.30
2023-01-01T19:47:00.531Z,58.63
2023-01-01T19:49:27.937Z,58.32
2023-01-01T19:51:54.506Z,58.20
2023-01-01T19:54:20.983Z,58.21
2023-01-01T19:56:47.633Z,58.41
2023-01-01T19:59:14.057Z,57.94
2023-01-01T20:01:40.642Z,57.89
2023-01-01T20:04:07.392Z,58.26
2023-01-01T20:06:36.254Z,57.79
2023-01-01T20:09:02.998Z,57.76
2023-01-01T20:11:31.790Z,57.72
2023-01-01T20:13:58.477Z,58.18
2023-01-01T20:16:24.989Z,58.10
2023-01-01T20:18:51.622Z,58.11
2023-01-01T20:21:36.523Z,57.61
2023-01-01T20:24:03.221Z,57.76
2023-01-01T20:26:29.818Z,57.55
2023-01-01T20:29:14.664Z,57.73
2023-01-01T20:31:41.831Z,57.96
2023-01-01T20:34:08.356Z,58.05
2023-01-01T20:36:53.385Z,57.90
2023-01-01T20:39:19.932Z,57.87
2023-01-01T20:41:46.377Z,58.02
2023-01-01T20:44:12.840Z,58.03
2023-01-01T20:46:40.001Z,57.70
2023-01-01T20:49:06.767Z,57.80
2023-01-01T20:51:33.380Z,57.74
2023-01-01T20:54:00.192Z,57.21
2023-01-01T20:56:27.558Z,57.55
2023-01-01T20:59:00.131Z,56.99
2023-01-01T21:01:31.445Z,57.30
2023-01-01T21:03:58.035Z,57.11
2023-01-01T21:06:25.051Z,57.33
2023-01-01T21:08:52.539Z,57.45
2023-01-01T21:11:19.051Z,57.20
2023-01-01T21:13:45.839Z,57.44
2023-01-01T21:16:25.627Z,57.13
2023-01-01T21:18:52.311Z,57.14
2023-01-01T21:21:44.063Z,57.47
2023-01-01T21:24:18.342Z,57.56
2023-01-01T21:26:45.399Z,59.10
2023-01-01T21:29:15.130Z,59.20
2023-01-01T21:31:43.044Z,58.62
2023-01-01T21:34:34.566Z,58.82
2023-01-01T21:37:39.476Z,59.08
2023-01-01T21:40:38.119Z,58.72
2023-01-01T21:43:04.678Z,58.93
2023-01-01T21:45:35.804Z,58.69
2023-01-01T21:48:15.652Z,58.91
2023-01-01T21:50:45.221Z,58.80
2023-01-01T21:53:33.345Z,58.67
2023-01-01T21:56:04.534Z,59.00
2023-01-01T21:59:02.672Z,58.63
2023-01-01T22:01:43.619Z,58.79
2023-01-01T22:04:10.127Z,58.56
2023-01-01T22:06:41.702Z,58.94
2023-01-01T22:09:19.755Z,59.10
2023-01-01T22:11:47.688Z,59.36
2023-01-01T22:14:18.947Z,58.99
2023-01-01T22:16:49.318Z,59.36
2023-01-01T22:19:22.071Z,59.76
2023-01-01T22:21:50.520Z,59.81
2023-01-01T22:24:34.908Z,59.72
2023-01-01T22:27:13.468Z,60.23
2023-01-01T22:29:39.949Z,59.60
2023-01-01T22:32:20.648Z,59.73
2023-01-01T22:34:48.518Z,59.78
2023-01-01T22:37:37.719Z,59.80
2023-01-01T22:40:07.952Z,59.97
2023-01-01T22:42:38.951Z,60.04
2023-01-01T22:45:14.267Z,60.00
2023-01-01T22:47:44.592Z,59.83
2023-01-01T22:50:26.818Z,60.13
2023-01-01T22:52:53.616Z,60.20
2023-01-01T22:55:20.073Z,59.81
2023-01-01T22:57:47.037Z,59.96
2023-01-01T23:00:15.514Z,59.90
2023-01-01T23:02:42.012Z,59.40
2023-01-01T23:05:09.127Z,59.31
2023-01-01T23:07:41.967Z,59.32
2023-01-01T23:10:13.662Z,59.53
2023-01-01T23:12:40.136Z,60.36
2023-01-01T23:15:25.789Z,60.43
2023-01-01T23:17:52.253Z,60.98
2023-01-01T23:20:18.873Z,61.36
2023-01-01T23:22:49.765Z,61.53
2023-01-01T23:25:18.788Z,60.25
2023-01-01T23:27:46.328Z,61.79
2023-01-01T23:30:13.840Z,60.54
2023-01-01T23:32:41.760Z,61.76
2023-01-01T23:35:09.208Z,60.97
2023-01-01T23:37:35.730Z,61.49
2023-01-01T23:40:02.349Z,60.91
2023-01-01T23:42:28.782Z,60.96
2023-01-01T23:44:55.244Z,61.42
2023-01-01T23:47:21.859Z,61.52
2023-01-01T23:49:48.389Z,61.68
2023-01-01T23:52:14.826Z,62.29
2023-01-01T23:54:41.405Z,62.10
2023-01-01T23:57:07.866Z,61.83
2023-01-01T23:59:34.313Z,62.15
